Time;durP1;ratioP1;P1;durP2;ratioP2;P2;SDS_P1;SDS_P2;PMS_P1;PMS_P2;Temp;Humidity;BMP_temperature;BMP_pressure;BME280_temperature;BME280_humidity;BME280_pressure;Samples;Min_cycle;Max_cycle;Signal;HPM_P1;HPM_P2
2021/05/06 00:32:09;;;;;;;;;;;6.10;41.10;;;;;;5048851;28;19954;-71
2021/05/06 00:34:35;;;;;;;;;;;6.10;1.00;;;;;;5049436;28;19916;-71
2021/05/06 00:37:01;;;;;;;;;;;6.10;1.00;;;;;;5047654;28;20362;-72
2021/05/06 00:39:40;;;;;;;;;;;6.20;1.00;;;;;;5047803;28;19916;-71
2021/05/06 01:06:06;;;;;;;;;;;5.60;99.90;;;;;;5047115;28;19962;-71
2021/05/06 01:08:36;;;;;;;;;;;5.50;1.00;;;;;;5047903;28;19913;-71
2021/05/06 01:11:09;;;;;;;;;;;5.40;1.00;;;;;;5048749;28;20116;-72
2021/05/06 01:13:35;;;;;;;;;;;5.40;99.90;;;;;;5051230;28;19924;-72
2021/05/06 01:16:00;;;;;;;;;;;5.40;99.90;;;;;;5052717;28;19908;-72
2021/05/06 01:18:26;;;;;;;;;;;5.40;99.90;;;;;;5052527;28;20371;-72
2021/05/06 01:20:58;;;;;;;;;;;5.40;99.90;;;;;;5051668;28;19917;-71
2021/05/06 01:23:28;;;;;;;;;;;5.40;99.90;;;;;;5051200;28;20327;-72
2021/05/06 01:26:01;;;;;;;;;;;5.40;99.90;;;;;;5051973;28;19943;-71
2021/05/06 01:28:33;;;;;;;;;;;5.50;99.90;;;;;;5052245;28;19913;-71
2021/05/06 01:31:10;;;;;;;;;;;5.60;1.00;;;;;;5051689;28;19912;-72
2021/05/06 01:41:31;;;;;;;;;;;5.90;1.00;;;;;;5051933;28;19948;-72
2021/05/06 01:49:38;;;;;;;;;;;6.00;99.90;;;;;;5039913;28;19924;-72
2021/05/06 02:00:11;;;;;;;;;;;6.20;99.90;;;;;;5050933;28;20015;-72
2021/05/06 02:02:37;;;;;;;;;;;6.30;99.90;;;;;;5051951;28;19909;-71
2021/05/06 02:05:03;;;;;;;;;;;6.30;51.30;;;;;;5051078;28;20002;-72
2021/05/06 02:07:29;;;;;;;;;;;6.30;6.00;;;;;;5051011;28;20426;-71
2021/05/06 02:09:55;;;;;;;;;;;6.40;1.00;;;;;;5050247;28;19916;-71
2021/05/06 02:12:20;;;;;;;;;;;6.30;1.00;;;;;;5051281;28;20038;-72
2021/05/06 02:14:52;;;;;;;;;;;6.30;1.00;;;;;;5051598;28;20255;-71
2021/05/06 02:17:18;;;;;;;;;;;6.20;1.00;;;;;;5051824;28;19940;-71
2021/05/06 02:19:47;;;;;;;;;;;6.10;1.00;;;;;;5051060;28;20004;-71
2021/05/06 02:22:13;;;;;;;;;;;6.10;1.00;;;;;;5050836;28;19909;-72
2021/05/06 02:24:38;;;;;;;;;;;6.00;1.00;;;;;;5049708;28;19963;-72
2021/05/06 02:27:04;;;;;;;;;;;6.00;1.00;;;;;;5051242;28;19963;-71
2021/05/06 02:29:29;;;;;;;;;;;5.90;15.00;;;;;;5050664;28;19909;-71
2021/05/06 02:31:55;;;;;;;;;;;5.90;6.10;;;;;;5050895;28;19920;-72
2021/05/06 02:34:20;;;;;;;;;;;5.90;29.10;;;;;;5051280;28;19909;-72
2021/05/06 02:36:46;;;;;;;;;;;5.90;64.60;;;;;;5050536;28;19952;-72
2021/05/06 02:39:11;;;;;;;;;;;5.90;99.90;;;;;;5049101;28;19909;-72
2021/05/06 02:41:37;;;;;;;;;;;5.90;62.20;;;;;;5050853;28;19920;-72
2021/05/06 02:44:03;;;;;;;;;;;5.90;95.50;;;;;;5032746;28;19959;-71
2021/05/06 02:46:28;;;;;;;;;;;5.90;99.90;;;;;;5051007;28;19916;-71
2021/05/06 02:48:54;;;;;;;;;;;5.90;99.90;;;;;;5050825;28;19916;-72
2021/05/06 02:51:23;;;;;;;;;;;5.90;92.90;;;;;;5050103;28;19909;-71
2021/05/06 02:53:53;;;;;;;;;;;5.90;99.90;;;;;;5049381;28;20456;-70
2021/05/06 03:04:10;;;;;;;;;;;6.00;99.90;;;;;;5005452;28;19913;-71
2021/05/06 03:20:55;;;;;;;;;;;5.90;99.90;;;;;;4968993;28;19943;-70
2021/05/06 03:23:18;;;;;;;;;;;5.80;99.90;;;;;;4968406;28;19976;-71
2021/05/06 03:25:44;;;;;;;;;;;5.80;99.90;;;;;;4968079;28;19916;-70
2021/05/06 03:28:13;;;;;;;;;;;5.80;99.90;;;;;;4968522;28;19914;-70
2021/05/06 03:50:23;;;;;;;;;;;6.10;1.00;;;;;;5049514;28;19955;-71
2021/05/06 04:29:50;;;;;;;;;;;6.30;99.90;;;;;;5056712;28;19921;-71
2021/05/06 04:37:28;;;;;;;;;;;6.30;1.00;;;;;;5050720;28;19936;-71
2021/05/06 04:39:57;;;;;;;;;;;6.40;1.00;;;;;;5058680;28;19913;-71
2021/05/06 04:42:50;;;;;;;;;;;6.50;1.00;;;;;;5054681;28;19913;-70
2021/05/06 04:53:28;;;;;;;;;;;6.90;99.90;;;;;;5053504;28;19920;-72
2021/05/06 04:56:06;;;;;;;;;;;7.20;1.00;;;;;;5053255;28;20253;-70
2021/05/06 05:06:21;;;;;;;;;;;7.60;1.00;;;;;;5054284;28;20308;-72
2021/05/06 05:08:56;;;;;;;;;;;7.80;1.00;;;;;;5050978;28;19975;-72
2021/05/06 05:27:26;;;;;;;;;;;8.50;99.90;;;;;;5059586;28;20251;-72
2021/05/06 05:29:52;;;;;;;;;;;8.50;99.90;;;;;;5050887;28;19920;-70
2021/05/06 05:32:18;;;;;;;;;;;8.60;99.90;;;;;;5033603;28;19935;-72
2021/05/06 05:34:47;;;;;;;;;;;8.80;99.90;;;;;;5034064;28;19912;-71
2021/05/06 05:37:18;;;;;;;;;;;8.70;99.90;;;;;;5050394;28;19935;-72
2021/05/06 05:55:40;;;;;;;;;;;13.30;1.00;;;;;;5051345;28;20376;-71
2021/05/06 05:58:06;;;;;;;;;;;13.30;1.00;;;;;;5050958;28;20281;-70
2021/05/06 06:00:31;;;;;;;;;;;13.40;1.00;;;;;;5050621;28;19912;-70
2021/05/06 06:02:57;;;;;;;;;;;13.90;1.00;;;;;;5050977;28;19917;-70
2021/05/06 06:05:23;;;;;;;;;;;14.70;1.00;;;;;;5051215;28;20052;-70
2021/05/06 06:07:49;;;;;;;;;;;15.00;99.90;;;;;;5050215;28;19909;-70
2021/05/06 06:10:14;;;;;;;;;;;15.50;1.00;;;;;;5049821;28;20081;-70
2021/05/06 06:12:40;;;;;;;;;;;16.40;1.00;;;;;;5050634;28;19928;-70
2021/05/06 06:15:09;;;;;;;;;;;16.40;1.00;;;;;;5050863;28;19985;-70
2021/05/06 06:17:40;;;;;;;;;;;15.50;1.00;;;;;;5050572;28;19946;-70
2021/05/06 06:20:06;;;;;;;;;;;14.70;99.90;;;;;;5047197;28;19909;-70
2021/05/06 06:22:31;;;;;;;;;;;13.90;1.00;;;;;;5050138;28;19919;-70
2021/05/06 06:24:58;;;;;;;;;;;13.10;1.00;;;;;;5050223;28;20362;-70
2021/05/06 06:27:23;;;;;;;;;;;12.50;99.90;;;;;;5032534;28;20023;-71
2021/05/06 06:29:49;;;;;;;;;;;12.00;1.00;;;;;;5049438;28;20008;-70
2021/05/06 06:32:16;;;;;;;;;;;11.60;1.00;;;;;;5049859;28;20024;-70
2021/05/06 06:34:42;;;;;;;;;;;11.20;1.00;;;;;;5050832;28;19995;-70
2021/05/06 06:37:08;;;;;;;;;;;10.90;1.00;;;;;;5049922;28;20350;-70
2021/05/06 06:39:36;;;;;;;;;;;10.50;1.00;;;;;;5048967;28;20388;-70
2021/05/06 06:42:02;;;;;;;;;;;10.30;1.00;;;;;;5050399;28;19919;-70
2021/05/06 06:44:29;;;;;;;;;;;10.10;1.00;;;;;;5050309;28;19995;-70
2021/05/06 06:47:01;;;;;;;;;;;9.90;1.00;;;;;;5050070;28;19919;-69
2021/05/06 06:49:31;;;;;;;;;;;9.80;1.00;;;;;;5049977;28;19905;-71
2021/05/06 06:51:57;;;;;;;;;;;9.70;1.00;;;;;;5044677;28;19916;-71
2021/05/06 06:54:24;;;;;;;;;;;9.60;1.00;;;;;;5049083;28;19974;-71
2021/05/06 06:56:50;;;;;;;;;;;9.60;1.00;;;;;;5050287;28;19916;-72
2021/05/06 06:59:15;;;;;;;;;;;9.70;1.00;;;;;;5049037;28;19908;-71
2021/05/06 07:01:41;;;;;;;;;;;9.70;1.00;;;;;;5050635;28;19917;-73
2021/05/06 07:04:06;;;;;;;;;;;9.80;1.00;;;;;;5050201;28;20427;-74
2021/05/06 07:06:32;;;;;;;;;;;9.80;1.00;;;;;;5049568;28;19944;-73
2021/05/06 07:08:58;;;;;;;;;;;9.90;1.00;;;;;;5047662;28;19909;-75
2021/05/06 07:11:23;;;;;;;;;;;9.90;1.00;;;;;;5048890;28;19988;-74
2021/05/06 07:13:49;;;;;;;;;;;10.00;1.00;;;;;;5050200;28;19912;-74
2021/05/06 07:16:14;;;;;;;;;;;10.20;1.00;;;;;;5050324;28;19909;-73
2021/05/06 07:18:40;;;;;;;;;;;10.40;1.00;;;;;;5050118;28;19909;-74
2021/05/06 07:21:06;;;;;;;;;;;10.60;1.00;;;;;;5049392;28;19908;-74
2021/05/06 07:23:32;;;;;;;;;;;10.80;1.00;;;;;;5047853;28;19920;-74
2021/05/06 07:25:58;;;;;;;;;;;11.20;1.00;;;;;;5049984;28;19909;-74
2021/05/06 07:28:40;;;;;;;;;;;11.70;1.00;;;;;;5049298;28;19939;-75
2021/05/06 07:31:07;;;;;;;;;;;12.00;1.00;;;;;;5049168;28;19915;-74
2021/05/06 07:33:33;;;;;;;;;;;12.30;1.00;;;;;;5049513;28;20015;-74
2021/05/06 07:36:00;;;;;;;;;;;12.50;1.00;;;;;;5046728;28;19912;-73
2021/05/06 07:38:27;;;;;;;;;;;12.70;1.00;;;;;;5048250;28;19908;-75
2021/05/06 07:40:53;;;;;;;;;;;13.00;1.00;;;;;;5048981;28;20050;-75
2021/05/06 07:43:18;;;;;;;;;;;13.30;1.00;;;;;;5049170;28;19932;-73
2021/05/06 07:45:44;;;;;;;;;;;13.60;1.00;;;;;;5049376;28;20013;-73
2021/05/06 07:48:10;;;;;;;;;;;14.00;1.00;;;;;;5049372;28;20000;-74
2021/05/06 07:50:36;;;;;;;;;;;14.50;1.00;;;;;;5048665;28;19916;-72
2021/05/06 07:53:08;;;;;;;;;;;15.10;1.00;;;;;;5049097;28;19936;-73
2021/05/06 07:55:34;;;;;;;;;;;15.90;1.00;;;;;;5049578;28;19975;-74
2021/05/06 07:58:02;;;;;;;;;;;16.50;1.00;;;;;;5049020;28;19908;-73
2021/05/06 08:00:28;;;;;;;;;;;17.00;1.00;;;;;;5048654;28;19909;-73
2021/05/06 08:02:53;;;;;;;;;;;17.60;1.00;;;;;;5049592;28;19916;-75
2021/05/06 08:05:19;;;;;;;;;;;17.70;99.90;;;;;;5049271;28;19916;-74
2021/05/06 08:07:45;;;;;;;;;;;17.70;1.00;;;;;;5048725;28;19974;-73
2021/05/06 08:10:11;;;;;;;;;;;17.70;99.90;;;;;;5047759;28;20075;-72
2021/05/06 08:12:37;;;;;;;;;;;17.60;99.90;;;;;;5049254;28;19912;-75
2021/05/06 08:15:07;;;;;;;;;;;17.20;1.00;;;;;;5049309;28;19916;-75
2021/05/06 08:17:33;;;;;;;;;;;17.10;1.00;;;;;;5049524;28;19913;-74
2021/05/06 08:19:58;;;;;;;;;;;16.70;99.90;;;;;;5028020;28;19909;-74
2021/05/06 08:22:24;;;;;;;;;;;16.50;99.90;;;;;;5050783;28;20025;-74
2021/05/06 08:24:50;;;;;;;;;;;16.30;99.90;;;;;;5052727;28;19916;-73
2021/05/06 08:27:16;;;;;;;;;;;16.30;99.90;;;;;;5053062;28;19917;-74
2021/05/06 08:29:42;;;;;;;;;;;16.50;1.00;;;;;;5051927;28;19913;-75
2021/05/06 08:32:07;;;;;;;;;;;16.60;18.70;;;;;;5053676;28;19940;-75
2021/05/06 08:34:33;;;;;;;;;;;16.30;1.00;;;;;;5053216;28;20011;-74
2021/05/06 08:37:00;;;;;;;;;;;15.80;1.00;;;;;;5052322;28;21527;-75
2021/05/06 08:39:25;;;;;;;;;;;15.40;1.00;;;;;;5051176;28;19964;-74
2021/05/06 08:41:51;;;;;;;;;;;15.40;1.00;;;;;;5053324;28;19912;-74
2021/05/06 08:44:19;;;;;;;;;;;15.20;1.00;;;;;;5052896;28;19916;-75
2021/05/06 08:47:07;;;;;;;;;;;14.90;99.90;;;;;;5053774;28;19939;-73
2021/05/06 08:49:35;;;;;;;;;;;14.90;99.90;;;;;;5051891;28;19955;-74
2021/05/06 08:52:01;;;;;;;;;;;14.90;99.90;;;;;;5052678;28;19912;-74
2021/05/06 08:54:27;;;;;;;;;;;14.60;1.00;;;;;;5033661;28;19992;-74
2021/05/06 08:56:53;;;;;;;;;;;14.60;99.90;;;;;;5044500;28;20016;-74
2021/05/06 08:59:18;;;;;;;;;;;14.60;1.00;;;;;;5052098;28;19916;-72
2021/05/06 09:01:44;;;;;;;;;;;14.80;99.90;;;;;;5052826;28;19912;-74
2021/05/06 09:04:10;;;;;;;;;;;14.70;48.00;;;;;;5052593;28;19928;-74
2021/05/06 09:06:35;;;;;;;;;;;14.80;99.90;;;;;;5052080;28;20058;-74
2021/05/06 09:09:03;;;;;;;;;;;15.20;99.90;;;;;;5050650;28;20371;-75
2021/05/06 09:11:29;;;;;;;;;;;15.30;99.90;;;;;;5044540;28;19963;-74
2021/05/06 09:14:15;;;;;;;;;;;15.50;1.00;;;;;;5051642;28;20003;-74
2021/05/06 09:16:41;;;;;;;;;;;15.30;1.00;;;;;;5051621;28;20305;-74
2021/05/06 09:19:08;;;;;;;;;;;15.40;99.90;;;;;;5051756;28;20417;-73
2021/05/06 09:21:36;;;;;;;;;;;15.40;99.90;;;;;;5033167;28;19932;-73
2021/05/06 09:24:09;;;;;;;;;;;15.30;1.00;;;;;;5050736;28;19913;-74
2021/05/06 09:26:35;;;;;;;;;;;15.10;1.00;;;;;;5032505;28;19932;-74
2021/05/06 09:29:03;;;;;;;;;;;15.20;1.00;;;;;;5050898;28;20070;-72
2021/05/06 09:31:28;;;;;;;;;;;15.00;1.00;;;;;;5051210;28;19908;-72
2021/05/06 09:33:54;;;;;;;;;;;14.70;1.00;;;;;;5051278;28;20333;-72
2021/05/06 09:36:23;;;;;;;;;;;14.50;1.00;;;;;;5051671;28;19960;-71
2021/05/06 09:38:52;;;;;;;;;;;14.30;1.00;;;;;;5050560;28;20349;-73
2021/05/06 09:41:19;;;;;;;;;;;14.00;1.00;;;;;;5051077;28;19908;-72
2021/05/06 09:43:45;;;;;;;;;;;13.70;1.00;;;;;;5051084;28;19915;-71
2021/05/06 09:46:30;;;;;;;;;;;13.40;1.00;;;;;;5051728;28;19917;-70
2021/05/06 09:48:59;;;;;;;;;;;13.40;1.00;;;;;;5050705;28;20421;-71
2021/05/06 09:51:29;;;;;;;;;;;13.30;1.00;;;;;;5051535;28;20428;-71
2021/05/06 09:53:58;;;;;;;;;;;13.20;1.00;;;;;;5050628;28;19917;-71
2021/05/06 09:56:24;;;;;;;;;;;13.30;1.00;;;;;;5050898;28;19920;-70
2021/05/06 09:58:50;;;;;;;;;;;13.30;1.00;;;;;;5050872;28;19916;-71
2021/05/06 10:01:15;;;;;;;;;;;13.40;1.00;;;;;;5051301;28;19917;-71
2021/05/06 10:03:41;;;;;;;;;;;13.20;1.00;;;;;;5051438;28;20335;-71
2021/05/06 10:06:14;;;;;;;;;;;13.10;1.00;;;;;;5050606;28;19924;-71
2021/05/06 10:08:40;;;;;;;;;;;13.00;1.00;;;;;;5045759;28;20089;-72
2021/05/06 10:11:15;;;;;;;;;;;13.00;99.90;;;;;;5050221;28;20166;-71
2021/05/06 10:13:41;;;;;;;;;;;13.10;99.90;;;;;;5051021;28;19916;-71
2021/05/06 10:16:08;;;;;;;;;;;13.30;99.90;;;;;;5051375;28;20411;-71
2021/05/06 10:18:34;;;;;;;;;;;13.40;1.00;;;;;;5051027;28;19994;-71
2021/05/06 10:21:00;;;;;;;;;;;13.40;1.00;;;;;;5050366;28;19909;-71
2021/05/06 10:23:26;;;;;;;;;;;13.50;99.90;;;;;;5049614;28;19915;-71
2021/05/06 10:25:52;;;;;;;;;;;13.70;99.90;;;;;;5050681;28;20261;-71
2021/05/06 10:28:18;;;;;;;;;;;13.90;99.90;;;;;;5051202;28;19932;-72
2021/05/06 10:30:44;;;;;;;;;;;13.90;99.90;;;;;;5050370;28;20278;-71
2021/05/06 10:33:10;;;;;;;;;;;13.90;99.90;;;;;;5050862;28;19939;-71
2021/05/06 10:35:35;;;;;;;;;;;14.00;99.90;;;;;;5050324;28;19948;-71
2021/05/06 10:38:04;;;;;;;;;;;13.80;1.00;;;;;;5050092;28;19913;-73
2021/05/06 10:40:29;;;;;;;;;;;13.60;99.90;;;;;;5049478;28;20456;-72
2021/05/06 10:42:56;;;;;;;;;;;13.70;1.00;;;;;;5049625;28;19948;-72
2021/05/06 10:45:22;;;;;;;;;;;13.60;1.00;;;;;;5049337;28;20389;-73
2021/05/06 10:47:54;;;;;;;;;;;13.70;99.10;;;;;;5050740;28;19917;-73
2021/05/06 10:50:23;;;;;;;;;;;13.80;99.90;;;;;;5049930;28;19937;-72
2021/05/06 10:52:50;;;;;;;;;;;14.00;99.90;;;;;;5049860;28;20340;-72
2021/05/06 10:55:35;;;;;;;;;;;13.80;99.90;;;;;;5050149;28;19909;-72
2021/05/06 10:58:21;;;;;;;;;;;13.90;99.90;;;;;;5050170;28;19913;-72
2021/05/06 11:00:55;;;;;;;;;;;13.70;99.90;;;;;;5045199;28;19913;-72
2021/05/06 11:03:24;;;;;;;;;;;13.70;1.00;;;;;;5048610;28;19966;-73
2021/05/06 11:05:50;;;;;;;;;;;13.60;1.00;;;;;;5049151;28;19951;-73
2021/05/06 11:08:18;;;;;;;;;;;13.50;1.00;;;;;;5048924;28;20354;-71
2021/05/06 11:10:48;;;;;;;;;;;13.40;1.00;;;;;;5048270;28;19948;-72
2021/05/06 11:13:14;;;;;;;;;;;13.10;1.00;;;;;;5050060;28;20281;-73
2021/05/06 11:15:41;;;;;;;;;;;12.80;1.00;;;;;;5044580;28;19913;-73
2021/05/06 11:18:07;;;;;;;;;;;12.80;1.00;;;;;;5049807;28;19962;-73
2021/05/06 11:20:34;;;;;;;;;;;12.50;1.00;;;;;;5048833;28;19919;-71
2021/05/06 11:23:01;;;;;;;;;;;12.30;1.00;;;;;;5049298;28;19912;-73
2021/05/06 11:25:30;;;;;;;;;;;12.30;1.00;;;;;;5049419;28;19909;-71
2021/05/06 11:28:00;;;;;;;;;;;12.20;1.00;;;;;;5028609;28;19944;-73
2021/05/06 11:30:37;;;;;;;;;;;12.00;1.00;;;;;;5048973;28;19943;-73
2021/05/06 11:33:27;;;;;;;;;;;12.10;1.00;;;;;;5047976;28;20288;-71
2021/05/06 11:35:53;;;;;;;;;;;12.30;1.00;;;;;;5048881;28;20031;-71
2021/05/06 11:38:19;;;;;;;;;;;12.40;1.00;;;;;;5048934;28;19967;-72
2021/05/06 11:40:44;;;;;;;;;;;12.40;1.00;;;;;;5048810;28;20318;-71
2021/05/06 11:43:19;;;;;;;;;;;12.50;1.00;;;;;;5049088;28;19909;-72
2021/05/06 11:45:45;;;;;;;;;;;12.40;1.00;;;;;;5048922;28;20344;-71
2021/05/06 11:48:12;;;;;;;;;;;12.10;1.00;;;;;;5048168;28;19917;-72
2021/05/06 11:50:41;;;;;;;;;;;12.00;1.00;;;;;;5047298;28;20022;-72
2021/05/06 11:53:13;;;;;;;;;;;12.20;1.00;;;;;;5047082;28;20011;-72
2021/05/06 11:55:41;;;;;;;;;;;12.00;1.00;;;;;;5047682;28;19945;-72
2021/05/06 11:58:09;;;;;;;;;;;11.50;95.20;;;;;;5047934;28;19959;-72
2021/05/06 12:00:39;;;;;;;;;;;11.50;99.90;;;;;;5047887;28;19948;-72
2021/05/06 12:03:05;;;;;;;;;;;11.20;99.90;;;;;;5048435;28;19924;-71
2021/05/06 12:05:50;;;;;;;;;;;11.20;99.90;;;;;;5047838;28;19924;-71
2021/05/06 12:08:16;;;;;;;;;;;11.20;99.90;;;;;;5045204;28;19925;-72
2021/05/06 12:10:42;;;;;;;;;;;11.20;99.90;;;;;;5047199;28;19974;-73
2021/05/06 12:13:08;;;;;;;;;;;11.10;99.90;;;;;;5047660;28;19964;-73
2021/05/06 12:15:34;;;;;;;;;;;10.80;99.90;;;;;;5048366;28;19915;-73
2021/05/06 12:18:14;;;;;;;;;;;10.90;99.90;;;;;;5048118;28;20352;-73
2021/05/06 12:20:47;;;;;;;;;;;11.10;99.90;;;;;;5044452;28;19913;-72
2021/05/06 12:23:12;;;;;;;;;;;11.00;99.90;;;;;;5047136;28;20415;-71
2021/05/06 12:25:37;;;;;;;;;;;11.10;99.90;;;;;;5047538;28;19949;-71
2021/05/06 12:28:03;;;;;;;;;;;11.20;99.90;;;;;;5047869;28;19919;-73
2021/05/06 12:30:28;;;;;;;;;;;11.20;99.90;;;;;;5046751;28;19913;-72
2021/05/06 12:32:54;;;;;;;;;;;11.30;99.90;;;;;;5047814;28;19920;-72
2021/05/06 12:35:19;;;;;;;;;;;11.40;1.00;;;;;;5047552;28;20393;-72
2021/05/06 12:37:45;;;;;;;;;;;11.30;99.90;;;;;;5047466;28;19995;-72
2021/05/06 12:40:11;;;;;;;;;;;11.30;1.00;;;;;;5047113;28;20369;-72
2021/05/06 12:42:37;;;;;;;;;;;11.40;1.00;;;;;;5049741;28;20395;-72
2021/05/06 12:45:04;;;;;;;;;;;11.30;1.00;;;;;;5049054;28;19999;-72
2021/05/06 12:47:31;;;;;;;;;;;11.20;99.90;;;;;;5031452;28;19913;-73
2021/05/06 12:50:12;;;;;;;;;;;11.20;99.90;;;;;;5030341;28;19967;-73
2021/05/06 12:52:38;;;;;;;;;;;11.00;99.90;;;;;;5048602;28;19963;-73
2021/05/06 12:55:19;;;;;;;;;;;10.90;99.90;;;;;;5047439;28;19912;-72
2021/05/06 12:57:45;;;;;;;;;;;10.80;99.90;;;;;;5048536;28;20000;-73
2021/05/06 13:00:15;;;;;;;;;;;10.70;1.00;;;;;;5048451;28;19925;-72
2021/05/06 13:02:40;;;;;;;;;;;10.70;1.00;;;;;;5048500;28;19909;-72
2021/05/06 13:05:06;;;;;;;;;;;10.70;99.90;;;;;;5048383;28;19908;-73
2021/05/06 13:07:31;;;;;;;;;;;10.70;1.00;;;;;;5042252;28;20015;-73
2021/05/06 13:09:57;;;;;;;;;;;10.60;99.90;;;;;;5050570;28;19912;-73
2021/05/06 13:12:23;;;;;;;;;;;10.70;99.50;;;;;;5052529;28;19924;-73
2021/05/06 13:14:50;;;;;;;;;;;10.70;1.00;;;;;;5052843;28;19909;-73
2021/05/06 13:17:48;;;;;;;;;;;10.90;1.00;;;;;;5052920;28;20004;-72
2021/05/06 13:20:15;;;;;;;;;;;10.90;1.00;;;;;;4987393;28;19920;-74
2021/05/06 13:22:41;;;;;;;;;;;11.10;1.00;;;;;;5031866;28;19913;-73
2021/05/06 13:25:09;;;;;;;;;;;10.90;67.70;;;;;;5031911;28;20445;-73
2021/05/06 13:27:44;;;;;;;;;;;10.90;1.00;;;;;;5032554;28;19909;-73
2021/05/06 13:30:10;;;;;;;;;;;10.90;1.00;;;;;;5031888;28;19909;-73
2021/05/06 13:32:37;;;;;;;;;;;10.80;99.90;;;;;;5032044;28;19913;-72
2021/05/06 13:35:05;;;;;;;;;;;10.70;1.00;;;;;;5034573;28;20348;-72
2021/05/06 13:37:38;;;;;;;;;;;10.70;1.00;;;;;;5051528;28;20676;-73
2021/05/06 13:40:05;;;;;;;;;;;10.60;1.00;;;;;;5038430;28;19909;-72
2021/05/06 13:42:30;;;;;;;;;;;10.50;25.40;;;;;;5051193;28;19928;-72
2021/05/06 13:44:57;;;;;;;;;;;10.40;1.00;;;;;;5051485;28;19996;-72
2021/05/06 13:47:23;;;;;;;;;;;10.20;1.00;;;;;;5051386;28;19916;-73
2021/05/06 13:49:49;;;;;;;;;;;9.90;1.00;;;;;;5050627;28;20316;-73
2021/05/06 13:52:15;;;;;;;;;;;9.80;99.90;;;;;;5050131;28;19916;-72
2021/05/06 13:54:40;;;;;;;;;;;9.50;1.00;;;;;;5049698;28;19995;-72
2021/05/06 13:57:06;;;;;;;;;;;9.50;58.70;;;;;;5049781;28;19908;-72
2021/05/06 13:59:31;;;;;;;;;;;9.50;82.10;;;;;;5050450;28;20354;-72
2021/05/06 14:01:57;;;;;;;;;;;9.60;1.00;;;;;;5048129;28;19962;-72
2021/05/06 14:04:23;;;;;;;;;;;9.70;99.90;;;;;;5050204;28;20412;-73
2021/05/06 14:06:49;;;;;;;;;;;9.60;99.90;;;;;;5048645;28;20342;-72
2021/05/06 14:09:16;;;;;;;;;;;9.50;1.00;;;;;;5031057;28;20294;-74
2021/05/06 14:11:43;;;;;;;;;;;9.40;1.00;;;;;;5049928;28;19913;-74
2021/05/06 14:14:08;;;;;;;;;;;9.50;1.00;;;;;;5051043;28;19939;-73
2021/05/06 14:16:34;;;;;;;;;;;9.50;1.00;;;;;;5050559;28;20377;-74
2021/05/06 14:18:59;;;;;;;;;;;9.40;1.00;;;;;;5048795;28;19991;-73
2021/05/06 14:21:25;;;;;;;;;;;9.40;89.80;;;;;;5048712;28;19909;-73
2021/05/06 14:23:51;;;;;;;;;;;9.50;99.90;;;;;;5049180;28;20641;-73
2021/05/06 14:26:18;;;;;;;;;;;9.50;99.90;;;;;;5047097;28;19923;-73
2021/05/06 14:28:44;;;;;;;;;;;9.60;99.90;;;;;;5050272;28;19909;-72
2021/05/06 14:31:10;;;;;;;;;;;9.50;99.90;;;;;;5049422;28;19909;-73
2021/05/06 14:33:36;;;;;;;;;;;9.60;99.90;;;;;;5049305;28;19923;-73
2021/05/06 14:36:04;;;;;;;;;;;9.60;99.90;;;;;;5049797;28;19944;-73
2021/05/06 14:38:30;;;;;;;;;;;9.60;99.90;;;;;;5048966;28;19932;-73
2021/05/06 14:40:55;;;;;;;;;;;9.60;99.90;;;;;;5048702;28;20357;-73
2021/05/06 14:43:21;;;;;;;;;;;9.50;1.00;;;;;;5050908;28;19916;-73
2021/05/06 14:45:46;;;;;;;;;;;9.50;1.00;;;;;;5050541;28;19916;-73
2021/05/06 14:48:14;;;;;;;;;;;9.40;1.00;;;;;;5050228;28;19917;-73
2021/05/06 14:50:40;;;;;;;;;;;9.40;1.00;;;;;;5049792;28;19908;-73
2021/05/06 14:53:05;;;;;;;;;;;9.20;1.00;;;;;;5048320;28;19931;-73
2021/05/06 14:55:31;;;;;;;;;;;9.20;1.00;;;;;;5049690;28;19956;-73
2021/05/06 14:57:56;;;;;;;;;;;9.30;1.00;;;;;;5030819;28;20381;-73
2021/05/06 15:00:22;;;;;;;;;;;9.20;1.00;;;;;;5049006;28;19924;-73
2021/05/06 15:02:48;;;;;;;;;;;9.30;1.00;;;;;;5048881;28;19912;-73
2021/05/06 15:05:14;;;;;;;;;;;9.30;1.00;;;;;;5049063;28;19916;-73
2021/05/06 15:07:39;;;;;;;;;;;9.20;1.00;;;;;;5048890;28;20344;-73
2021/05/06 15:10:06;;;;;;;;;;;9.00;1.00;;;;;;5048355;28;19908;-73
2021/05/06 15:12:33;;;;;;;;;;;9.00;1.00;;;;;;5048746;28;19913;-73
2021/05/06 15:14:59;;;;;;;;;;;8.90;1.00;;;;;;5046629;28;19913;-73
2021/05/06 15:17:25;;;;;;;;;;;8.90;1.00;;;;;;5048975;28;19921;-73
2021/05/06 15:19:52;;;;;;;;;;;9.00;1.00;;;;;;5048499;28;19913;-73
2021/05/06 15:22:18;;;;;;;;;;;9.00;1.00;;;;;;5045679;28;19908;-74
2021/05/06 15:24:43;;;;;;;;;;;8.90;1.00;;;;;;5047991;28;20000;-74
2021/05/06 15:27:09;;;;;;;;;;;8.90;1.00;;;;;;5048776;28;19909;-74
2021/05/06 15:29:34;;;;;;;;;;;8.90;1.00;;;;;;5048008;28;19909;-74
2021/05/06 15:32:00;;;;;;;;;;;9.10;1.00;;;;;;5048306;28;19917;-73
2021/05/06 15:34:26;;;;;;;;;;;9.10;1.00;;;;;;5048978;28;19913;-74
2021/05/06 15:36:51;;;;;;;;;;;9.00;1.00;;;;;;5048448;28;20245;-74
2021/05/06 15:39:17;;;;;;;;;;;9.10;1.00;;;;;;5047358;28;19948;-73
2021/05/06 15:41:42;;;;;;;;;;;9.10;1.00;;;;;;5049163;28;19956;-73
2021/05/06 15:44:08;;;;;;;;;;;9.20;1.00;;;;;;5049361;28;19942;-73
2021/05/06 15:46:34;;;;;;;;;;;9.20;1.00;;;;;;5048620;28;19926;-73
2021/05/06 15:49:01;;;;;;;;;;;9.20;1.00;;;;;;5048099;28;19934;-73
2021/05/06 15:51:27;;;;;;;;;;;9.00;1.00;;;;;;5048223;28;19909;-73
2021/05/06 15:53:52;;;;;;;;;;;9.00;1.00;;;;;;5047498;28;19921;-73
2021/05/06 15:56:18;;;;;;;;;;;9.00;1.00;;;;;;5048513;28;19917;-73
2021/05/06 15:58:43;;;;;;;;;;;9.20;1.00;;;;;;5047846;28;19920;-73
2021/05/06 16:01:09;;;;;;;;;;;9.20;1.00;;;;;;5047494;28;19913;-73
2021/05/06 16:03:45;;;;;;;;;;;9.30;1.00;;;;;;5048533;28;19939;-73
2021/05/06 16:06:11;;;;;;;;;;;9.40;1.00;;;;;;5048068;28;19920;-73
2021/05/06 16:08:36;;;;;;;;;;;9.30;1.00;;;;;;5047084;28;19916;-75
2021/05/06 16:11:03;;;;;;;;;;;9.30;1.00;;;;;;5047879;28;19912;-72
2021/05/06 16:13:28;;;;;;;;;;;9.40;1.00;;;;;;5048032;28;19959;-75
2021/05/06 16:15:54;;;;;;;;;;;9.50;1.00;;;;;;5048230;28;19917;-75
2021/05/06 16:18:22;;;;;;;;;;;9.40;1.00;;;;;;5048213;28;20560;-74
2021/05/06 16:20:48;;;;;;;;;;;9.50;1.00;;;;;;5046833;28;19909;-72
2021/05/06 16:23:13;;;;;;;;;;;9.50;1.00;;;;;;5047520;28;20012;-73
2021/05/06 16:25:40;;;;;;;;;;;9.40;1.00;;;;;;5048506;28;19909;-72
2021/05/06 16:28:06;;;;;;;;;;;9.40;1.00;;;;;;5047284;28;20337;-72
2021/05/06 16:30:32;;;;;;;;;;;9.40;1.00;;;;;;5047269;28;19952;-74
2021/05/06 16:32:59;;;;;;;;;;;9.30;1.00;;;;;;5048043;28;20375;-73
2021/05/06 16:35:33;;;;;;;;;;;9.00;1.00;;;;;;5049504;28;20362;-73
2021/05/06 16:38:05;;;;;;;;;;;9.10;1.00;;;;;;5049222;28;19954;-72
2021/05/06 16:40:37;;;;;;;;;;;9.00;1.00;;;;;;5055500;28;19917;-72
2021/05/06 16:45:46;;;;;;;;;;;8.90;1.00;;;;;;5056842;28;19947;-73
2021/05/06 16:48:13;;;;;;;;;;;9.00;1.00;;;;;;5058017;28;19917;-72
2021/05/06 16:50:40;;;;;;;;;;;9.20;1.00;;;;;;5051184;28;20432;-73
2021/05/06 16:53:05;;;;;;;;;;;9.30;1.00;;;;;;5052237;28;20282;-73
2021/05/06 16:55:31;;;;;;;;;;;9.40;1.00;;;;;;5053701;28;19916;-73
2021/05/06 16:57:57;;;;;;;;;;;9.50;1.00;;;;;;5051014;28;19917;-73
2021/05/06 17:00:22;;;;;;;;;;;9.50;1.00;;;;;;5049193;28;19913;-72
2021/05/06 17:02:52;;;;;;;;;;;9.60;1.00;;;;;;5048717;28;19963;-73
2021/05/06 17:05:20;;;;;;;;;;;9.70;1.00;;;;;;5048614;28;20630;-72
2021/05/06 17:07:46;;;;;;;;;;;9.70;1.00;;;;;;5052813;28;20361;-72
2021/05/06 17:10:15;;;;;;;;;;;9.70;1.00;;;;;;5048393;28;19912;-73
2021/05/06 17:12:40;;;;;;;;;;;9.70;1.00;;;;;;5050893;28;19921;-73
2021/05/06 17:15:07;;;;;;;;;;;9.70;1.00;;;;;;5061235;28;19923;-74
2021/05/06 17:17:32;;;;;;;;;;;9.70;1.00;;;;;;5064788;28;19913;-73
2021/05/06 17:19:59;;;;;;;;;;;9.70;1.00;;;;;;5059525;28;20035;-73
2021/05/06 17:22:24;;;;;;;;;;;9.80;1.00;;;;;;5060701;28;19920;-74
2021/05/06 17:24:50;;;;;;;;;;;9.80;1.00;;;;;;5056809;28;20543;-73
2021/05/06 17:27:16;;;;;;;;;;;9.80;1.00;;;;;;5055069;28;19917;-73
2021/05/06 17:29:41;;;;;;;;;;;9.80;1.00;;;;;;5042366;28;19987;-73
2021/05/06 17:32:07;;;;;;;;;;;9.80;1.00;;;;;;5062444;28;20391;-73
2021/05/06 17:34:32;;;;;;;;;;;9.80;1.00;;;;;;5059643;28;20015;-73
2021/05/06 17:36:58;;;;;;;;;;;9.80;1.00;;;;;;5062370;28;19956;-73
2021/05/06 17:39:25;;;;;;;;;;;9.70;1.00;;;;;;5061676;28;19916;-73
2021/05/06 17:41:50;;;;;;;;;;;9.60;1.00;;;;;;5067815;28;20373;-73
2021/05/06 17:44:16;;;;;;;;;;;9.60;1.00;;;;;;5057947;28;19920;-73
2021/05/06 17:46:41;;;;;;;;;;;9.50;1.00;;;;;;5064598;28;19956;-74
2021/05/06 17:49:07;;;;;;;;;;;9.50;1.00;;;;;;5059899;28;19917;-73
2021/05/06 17:51:32;;;;;;;;;;;9.40;1.00;;;;;;5061064;28;19943;-74
2021/05/06 17:53:58;;;;;;;;;;;9.40;1.00;;;;;;5069651;28;20023;-73
2021/05/06 17:56:23;;;;;;;;;;;9.40;1.00;;;;;;5063379;28;20062;-74
2021/05/06 17:58:53;;;;;;;;;;;9.40;1.00;;;;;;5062435;28;20344;-72
2021/05/06 18:01:19;;;;;;;;;;;9.30;1.00;;;;;;5058963;28;19912;-73
2021/05/06 18:03:45;;;;;;;;;;;9.30;1.00;;;;;;5063130;28;19909;-73